createdAt,value
2017-09-30T00:01:54.551Z,18.10
2017-09-30T00:04:22.123Z,18.10
2017-09-30T00:06:49.704Z,18.10
2017-09-30T00:09:17.300Z,18.00
2017-09-30T00:11:44.915Z,18.00
2017-09-30T00:14:12.488Z,18.00
2017-09-30T00:16:40.059Z,17.90
2017-09-30T00:19:07.665Z,17.90
2017-09-30T00:21:35.224Z,17.90
2017-09-30T00:24:02.826Z,17.80
2017-09-30T00:26:30.409Z,17.80
2017-09-30T00:28:57.979Z,17.80
2017-09-30T00:31:25.565Z,17.80
2017-09-30T00:33:53.124Z,17.80
2017-09-30T00:36:20.727Z,17.80
2017-09-30T00:38:49.052Z,17.70
2017-09-30T00:41:16.645Z,17.70
2017-09-30T00:43:44.281Z,17.80
2017-09-30T00:46:11.871Z,17.70
2017-09-30T00:48:39.483Z,17.70
2017-09-30T00:51:07.058Z,17.70
2017-09-30T00:53:34.646Z,17.80
2017-09-30T00:56:02.229Z,17.70
2017-09-30T00:58:29.802Z,17.70
2017-09-30T01:00:57.421Z,17.70
2017-09-30T01:03:24.991Z,17.70
2017-09-30T01:05:52.558Z,17.60
2017-09-30T01:08:20.155Z,17.60
2017-09-30T01:10:47.726Z,17.60
2017-09-30T01:13:15.318Z,17.60
2017-09-30T01:15:43.646Z,17.60
2017-09-30T01:18:11.225Z,17.60
2017-09-30T01:20:38.863Z,17.60
2017-09-30T01:23:06.421Z,17.50
2017-09-30T01:25:34.058Z,17.50
2017-09-30T01:28:02.405Z,17.50
2017-09-30T01:30:31.491Z,17.40
2017-09-30T01:32:59.094Z,17.40
2017-09-30T01:35:27.458Z,17.40
2017-09-30T01:37:55.852Z,17.30
2017-09-30T01:40:23.416Z,17.30
2017-09-30T01:42:50.987Z,17.30
2017-09-30T01:45:20.101Z,17.20
2017-09-30T01:47:47.689Z,17.20
2017-09-30T01:50:15.276Z,17.20
2017-09-30T01:52:42.852Z,17.20
2017-09-30T01:55:10.447Z,17.20
2017-09-30T01:57:38.815Z,17.10
2017-09-30T02:00:06.423Z,17.10
2017-09-30T02:02:34.008Z,17.10
2017-09-30T02:05:02.816Z,17.10
2017-09-30T02:07:30.390Z,17.10
2017-09-30T02:09:57.982Z,17.10
2017-09-30T02:12:26.317Z,17.00
2017-09-30T02:14:53.941Z,17.00
2017-09-30T02:17:21.541Z,17.10
2017-09-30T02:19:49.097Z,17.00
2017-09-30T02:22:16.687Z,17.00
2017-09-30T02:24:44.252Z,17.00
2017-09-30T02:27:11.869Z,17.00
2017-09-30T02:29:39.458Z,17.00
2017-09-30T02:32:07.041Z,17.00
2017-09-30T02:34:34.617Z,17.00
2017-09-30T02:37:02.190Z,17.00
2017-09-30T02:39:29.803Z,17.00
2017-09-30T02:41:57.374Z,17.00
2017-09-30T02:44:24.957Z,17.00
2017-09-30T02:46:52.541Z,17.00
2017-09-30T02:49:20.105Z,17.00
2017-09-30T02:51:47.718Z,17.00
2017-09-30T02:54:15.290Z,16.90
2017-09-30T02:56:42.895Z,16.90
2017-09-30T02:59:10.463Z,16.90
2017-09-30T03:01:38.029Z,16.90
2017-09-30T03:04:05.637Z,16.90
2017-09-30T03:06:33.210Z,16.90
2017-09-30T03:09:00.876Z,16.80
2017-09-30T03:11:28.461Z,16.90
2017-09-30T03:13:56.053Z,16.90
2017-09-30T03:16:23.645Z,16.90
2017-09-30T03:18:51.223Z,16.80
2017-09-30T03:21:18.831Z,16.80
2017-09-30T03:23:46.408Z,16.80
2017-09-30T03:26:14.027Z,16.80
2017-09-30T03:28:41.599Z,16.80
2017-09-30T03:31:09.221Z,16.80
2017-09-30T03:33:37.555Z,16.80
2017-09-30T03:36:05.130Z,16.80
2017-09-30T03:38:32.723Z,16.80
2017-09-30T03:41:01.076Z,16.80
2017-09-30T03:43:28.667Z,16.80
2017-09-30T03:45:56.996Z,16.70
2017-09-30T03:48:24.632Z,16.70
2017-09-30T03:50:52.217Z,16.70
2017-09-30T03:53:19.773Z,16.70
2017-09-30T03:55:47.352Z,16.70
2017-09-30T03:58:14.927Z,16.70
2017-09-30T04:00:42.537Z,16.60
2017-09-30T04:03:10.920Z,16.60
2017-09-30T04:05:39.300Z,16.60
2017-09-30T04:08:07.639Z,16.60
2017-09-30T04:10:35.216Z,16.60
2017-09-30T04:13:02.825Z,16.60
2017-09-30T04:15:31.162Z,16.60
2017-09-30T04:17:58.736Z,16.60
2017-09-30T04:20:26.318Z,16.60
2017-09-30T04:22:54.683Z,16.50
2017-09-30T04:25:22.241Z,16.50
2017-09-30T04:27:49.800Z,16.60
2017-09-30T04:30:17.386Z,16.50
2017-09-30T04:32:44.967Z,16.50
2017-09-30T04:35:13.311Z,16.50
2017-09-30T04:37:40.865Z,16.50
2017-09-30T04:40:08.466Z,16.50
2017-09-30T04:42:36.900Z,16.50
2017-09-30T04:45:04.456Z,16.50
2017-09-30T04:47:32.064Z,16.50
2017-09-30T04:49:59.620Z,16.50
2017-09-30T04:52:27.225Z,16.40
2017-09-30T04:54:54.780Z,16.40
2017-09-30T04:57:23.148Z,16.40
2017-09-30T04:59:50.733Z,16.40
2017-09-30T05:02:18.311Z,16.40
2017-09-30T05:04:45.911Z,16.40
2017-09-30T05:07:13.500Z,16.40
2017-09-30T05:09:41.084Z,16.40
2017-09-30T05:12:09.436Z,16.40
2017-09-30T05:14:37.047Z,16.30
2017-09-30T05:17:04.616Z,16.30
2017-09-30T05:19:32.175Z,16.30
2017-09-30T05:21:59.766Z,16.30
2017-09-30T05:24:27.353Z,16.30
2017-09-30T05:26:54.946Z,16.30
2017-09-30T05:29:23.269Z,16.30
2017-09-30T05:31:50.952Z,16.30
2017-09-30T05:34:18.532Z,16.30
2017-09-30T05:36:46.161Z,16.30
2017-09-30T05:39:13.748Z,16.30
2017-09-30T05:41:41.304Z,16.40
2017-09-30T05:44:08.951Z,16.40
2017-09-30T05:46:36.537Z,16.40
2017-09-30T05:49:04.141Z,16.40
2017-09-30T05:51:32.478Z,16.40
2017-09-30T05:54:00.051Z,16.40
2017-09-30T05:56:27.651Z,16.40
2017-09-30T05:58:56.021Z,16.40
2017-09-30T06:01:24.369Z,16.40
2017-09-30T06:03:51.957Z,16.40
2017-09-30T06:06:20.312Z,16.50
2017-09-30T06:08:47.879Z,16.40
2017-09-30T06:11:15.449Z,16.50
2017-09-30T06:13:43.043Z,16.40
2017-09-30T06:16:10.619Z,16.50
2017-09-30T06:18:38.988Z,16.50
2017-09-30T06:21:06.581Z,16.50
2017-09-30T06:23:34.201Z,16.60
2017-09-30T06:26:01.761Z,16.60
2017-09-30T06:28:29.331Z,16.60
2017-09-30T06:30:56.912Z,16.60
2017-09-30T06:33:24.476Z,16.60
2017-09-30T06:35:52.080Z,16.60
2017-09-30T06:38:19.665Z,16.60
2017-09-30T06:40:47.271Z,16.60
2017-09-30T06:43:14.869Z,16.60
2017-09-30T06:45:42.457Z,16.60
2017-09-30T06:48:10.054Z,16.60
2017-09-30T06:50:37.638Z,16.60
2017-09-30T06:53:06.017Z,16.70
2017-09-30T06:55:34.367Z,16.70
2017-09-30T06:58:01.998Z,16.70
2017-09-30T07:00:29.579Z,16.70
2017-09-30T07:02:57.165Z,16.70
2017-09-30T07:05:24.767Z,16.70
2017-09-30T07:07:53.123Z,16.70
2017-09-30T07:10:20.719Z,16.70
2017-09-30T07:12:48.290Z,16.70
2017-09-30T07:15:15.898Z,16.70
2017-09-30T07:17:43.456Z,16.70
2017-09-30T07:20:11.026Z,16.70
2017-09-30T07:22:38.615Z,16.70
2017-09-30T07:25:06.186Z,16.70
2017-09-30T07:27:34.532Z,16.70
2017-09-30T07:30:02.096Z,16.70
2017-09-30T07:32:29.703Z,16.70
2017-09-30T07:34:58.038Z,16.70
2017-09-30T07:37:25.643Z,16.70
2017-09-30T07:39:54.006Z,16.80
2017-09-30T07:42:21.587Z,16.80
2017-09-30T07:44:49.943Z,17.00
2017-09-30T07:47:17.512Z,17.00
2017-09-30T07:49:45.116Z,17.10
2017-09-30T07:52:13.436Z,17.20
2017-09-30T07:54:41.025Z,17.20
2017-09-30T07:57:08.615Z,17.20
2017-09-30T07:59:36.955Z,17.30
2017-09-30T08:02:04.555Z,17.30
2017-09-30T08:04:32.905Z,17.30
2017-09-30T08:07:00.507Z,17.20
2017-09-30T08:09:28.843Z,17.30
2017-09-30T08:11:56.426Z,17.20
2017-09-30T08:14:24.035Z,17.30
2017-09-30T08:16:51.596Z,17.30
2017-09-30T08:19:19.213Z,17.30
2017-09-30T08:21:46.785Z,17.30
2017-09-30T08:24:14.387Z,17.30
2017-09-30T08:26:41.974Z,17.40
2017-09-30T08:29:09.552Z,17.40
2017-09-30T08:31:37.221Z,17.40
2017-09-30T08:34:04.923Z,17.40
2017-09-30T08:36:32.515Z,17.40
2017-09-30T08:39:00.098Z,17.40
2017-09-30T08:41:27.711Z,17.40
2017-09-30T08:43:55.268Z,17.40
2017-09-30T08:46:22.856Z,17.40
2017-09-30T08:48:51.208Z,17.40
2017-09-30T08:51:18.771Z,17.40
2017-09-30T08:53:46.368Z,17.40
2017-09-30T08:56:14.733Z,17.40
2017-09-30T08:58:42.562Z,17.40
2017-09-30T09:01:10.197Z,17.50
2017-09-30T09:03:37.766Z,17.40
2017-09-30T09:06:05.367Z,17.40
2017-09-30T09:08:32.939Z,17.40
2017-09-30T09:11:00.548Z,17.50
2017-09-30T09:13:28.879Z,17.60
2017-09-30T09:15:56.487Z,17.60
2017-09-30T09:18:24.827Z,17.70
2017-09-30T09:20:52.403Z,17.70
2017-09-30T09:23:19.999Z,17.70
2017-09-30T09:25:48.343Z,17.70
2017-09-30T09:28:15.950Z,17.70
2017-09-30T09:30:44.291Z,17.80
2017-09-30T09:33:11.898Z,17.80
2017-09-30T09:35:40.239Z,17.90
2017-09-30T09:38:07.814Z,17.90
2017-09-30T09:40:35.415Z,18.00
2017-09-30T09:43:02.980Z,18.00
2017-09-30T09:45:30.570Z,18.10
2017-09-30T09:47:58.139Z,18.30
2017-09-30T09:50:25.728Z,18.40
2017-09-30T09:52:53.284Z,18.40
2017-09-30T09:55:20.844Z,18.40
2017-09-30T09:57:48.442Z,18.40
2017-09-30T10:00:16.789Z,18.20
2017-09-30T10:02:44.383Z,18.20
2017-09-30T10:05:12.733Z,18.20
2017-09-30T10:07:40.336Z,18.10
2017-09-30T10:10:08.690Z,18.00
2017-09-30T10:12:36.263Z,18.00
2017-09-30T10:15:03.877Z,18.00
2017-09-30T10:17:31.447Z,17.90
2017-09-30T10:19:59.035Z,17.90
2017-09-30T10:22:26.607Z,17.90
2017-09-30T10:24:54.199Z,17.90
2017-09-30T10:27:22.549Z,17.90
2017-09-30T10:29:50.115Z,18.00
2017-09-30T10:32:17.707Z,18.00
2017-09-30T10:34:46.058Z,18.00
2017-09-30T10:37:13.647Z,18.00
2017-09-30T10:39:41.236Z,18.00
2017-09-30T10:42:09.613Z,17.80
2017-09-30T10:44:37.946Z,17.80
2017-09-30T10:47:05.500Z,17.70
2017-09-30T10:49:33.072Z,17.70
2017-09-30T10:52:00.638Z,17.70
2017-09-30T10:54:28.230Z,17.70
2017-09-30T10:56:55.789Z,17.70
2017-09-30T10:59:23.383Z,17.60
2017-09-30T11:01:51.696Z,17.50
2017-09-30T11:04:19.253Z,17.60
2017-09-30T11:06:46.857Z,17.60
2017-09-30T11:09:15.931Z,17.50
2017-09-30T11:11:43.519Z,17.50
2017-09-30T11:14:11.245Z,17.50
2017-09-30T11:16:38.847Z,17.50
2017-09-30T11:19:06.404Z,17.50
2017-09-30T11:21:33.974Z,17.50
2017-09-30T11:24:01.578Z,17.50
2017-09-30T11:26:29.915Z,17.50
2017-09-30T11:28:57.538Z,17.50
2017-09-30T11:31:25.115Z,17.50
2017-09-30T11:33:52.715Z,17.30
2017-09-30T11:36:20.298Z,17.20
2017-09-30T11:38:47.860Z,17.20
2017-09-30T11:41:16.234Z,17.10
2017-09-30T11:43:43.829Z,17.00
2017-09-30T11:46:12.215Z,16.90
2017-09-30T11:48:39.786Z,16.90
2017-09-30T11:51:07.417Z,16.90
2017-09-30T11:53:34.982Z,16.90
2017-09-30T11:56:02.565Z,16.80
2017-09-30T11:58:30.935Z,16.60
2017-09-30T12:00:59.274Z,16.50
2017-09-30T12:03:26.871Z,16.50
2017-09-30T12:05:54.432Z,16.40
2017-09-30T12:08:22.043Z,16.30
2017-09-30T12:10:49.616Z,16.20
2017-09-30T12:13:17.182Z,16.00
2017-09-30T12:15:44.778Z,16.00
2017-09-30T12:18:12.340Z,16.00
2017-09-30T12:20:39.920Z,15.90
2017-09-30T12:23:08.258Z,15.80
2017-09-30T12:25:35.862Z,15.80
2017-09-30T12:28:03.426Z,15.80
2017-09-30T12:30:31.012Z,15.70
2017-09-30T12:32:59.371Z,15.70
2017-09-30T12:35:26.924Z,15.70
2017-09-30T12:37:54.513Z,15.70
2017-09-30T12:40:22.845Z,15.60
2017-09-30T12:42:50.461Z,15.60
2017-09-30T12:45:18.798Z,15.50
2017-09-30T12:47:46.380Z,15.50
2017-09-30T12:50:13.993Z,15.50
2017-09-30T12:52:41.567Z,15.40
2017-09-30T12:55:09.158Z,15.40
2017-09-30T12:57:36.731Z,15.40
2017-09-30T13:00:04.346Z,15.50
2017-09-30T13:02:31.918Z,15.50
2017-09-30T13:04:59.476Z,15.40
2017-09-30T13:07:27.824Z,15.30
2017-09-30T13:09:55.385Z,15.30
2017-09-30T13:12:22.979Z,15.40
2017-09-30T13:14:51.318Z,15.20
2017-09-30T13:17:18.900Z,15.20
2017-09-30T13:19:47.378Z,15.20
2017-09-30T13:22:14.949Z,15.10
2017-09-30T13:24:43.305Z,15.00
2017-09-30T13:27:10.911Z,15.00
2017-09-30T13:29:39.246Z,15.00
2017-09-30T13:32:06.819Z,14.90
2017-09-30T13:34:34.397Z,14.90
2017-09-30T13:37:01.948Z,15.00
2017-09-30T13:39:29.549Z,15.00
2017-09-30T13:41:57.889Z,14.90
2017-09-30T13:44:25.464Z,14.90
2017-09-30T13:46:53.041Z,14.90
2017-09-30T13:49:21.404Z,14.80
2017-09-30T13:51:48.964Z,14.80
2017-09-30T13:54:16.516Z,14.80
2017-09-30T13:56:44.107Z,14.80
2017-09-30T13:59:11.660Z,14.80
2017-09-30T14:01:39.461Z,14.80
2017-09-30T14:04:07.799Z,14.80
2017-09-30T14:06:35.415Z,14.80
2017-09-30T14:09:03.750Z,14.90
2017-09-30T14:11:31.327Z,14.90
2017-09-30T14:13:58.918Z,14.90
2017-09-30T14:16:26.504Z,14.90
2017-09-30T14:18:54.095Z,14.90
2017-09-30T14:21:21.648Z,14.90
2017-09-30T14:23:49.249Z,14.90
2017-09-30T14:26:16.838Z,15.00
2017-09-30T14:28:45.199Z,15.00
2017-09-30T14:31:12.769Z,15.00
2017-09-30T14:33:40.393Z,15.00
2017-09-30T14:36:07.949Z,15.10
2017-09-30T14:38:35.533Z,15.10
2017-09-30T14:41:03.103Z,15.20
2017-09-30T14:43:30.703Z,15.10
2017-09-30T14:45:59.127Z,15.10
2017-09-30T14:48:26.721Z,15.10
2017-09-30T14:50:54.321Z,15.00
2017-09-30T14:53:22.680Z,15.00
2017-09-30T14:55:50.285Z,14.90
2017-09-30T14:58:19.663Z,14.90
2017-09-30T15:00:47.291Z,14.80
2017-09-30T15:03:14.872Z,14.80
2017-09-30T15:05:43.989Z,14.50
2017-09-30T15:08:11.558Z,14.50
2017-09-30T15:10:39.913Z,14.40
2017-09-30T15:13:07.482Z,14.30
2017-09-30T15:15:35.050Z,14.20
2017-09-30T15:18:04.155Z,14.10
2017-09-30T15:20:31.730Z,14.10
2017-09-30T15:23:00.100Z,14.20
2017-09-30T15:25:27.656Z,14.20
2017-09-30T15:27:55.290Z,14.10
2017-09-30T15:30:22.845Z,14.20
2017-09-30T15:32:50.425Z,14.10
2017-09-30T15:35:18.000Z,14.10
2017-09-30T15:37:45.567Z,14.10
2017-09-30T15:40:13.167Z,14.10
2017-09-30T15:42:41.508Z,14.00
2017-09-30T15:45:09.121Z,14.00
2017-09-30T15:47:36.715Z,13.90
2017-09-30T15:50:04.293Z,13.90
2017-09-30T15:52:31.881Z,13.90
2017-09-30T15:54:59.476Z,14.00
2017-09-30T15:57:27.097Z,14.00
2017-09-30T15:59:54.667Z,14.00
2017-09-30T16:02:22.302Z,13.90
2017-09-30T16:04:49.885Z,13.90
2017-09-30T16:07:17.484Z,13.90
2017-09-30T16:09:45.866Z,13.80
2017-09-30T16:12:13.579Z,13.80
2017-09-30T16:14:41.248Z,13.90
2017-09-30T16:17:08.849Z,13.80
2017-09-30T16:19:37.211Z,13.90
2017-09-30T16:22:04.783Z,13.80
2017-09-30T16:24:32.395Z,13.90
2017-09-30T16:26:59.967Z,13.90
2017-09-30T16:29:27.596Z,13.80
2017-09-30T16:31:55.181Z,13.80
2017-09-30T16:34:22.783Z,13.70
2017-09-30T16:36:50.371Z,13.70
2017-09-30T16:39:17.947Z,13.70
2017-09-30T16:41:45.567Z,13.70
2017-09-30T16:44:13.154Z,13.70
2017-09-30T16:46:40.808Z,13.70
2017-09-30T16:49:08.386Z,13.70
2017-09-30T16:51:35.963Z,13.70
2017-09-30T16:54:03.599Z,13.80
2017-09-30T16:56:31.171Z,13.80
2017-09-30T16:58:58.752Z,13.80
2017-09-30T17:01:26.341Z,13.80
2017-09-30T17:03:54.058Z,13.70
2017-09-30T17:06:21.618Z,13.70
2017-09-30T17:08:49.211Z,13.70
2017-09-30T17:11:16.783Z,13.70
2017-09-30T17:13:44.393Z,13.70
2017-09-30T17:16:12.081Z,13.70
2017-09-30T17:18:39.676Z,13.80
2017-09-30T17:21:07.257Z,13.70
2017-09-30T17:23:34.850Z,13.70
2017-09-30T17:26:02.493Z,13.70
2017-09-30T17:28:30.844Z,13.70
2017-09-30T17:30:58.474Z,13.70
2017-09-30T17:33:26.084Z,13.70
2017-09-30T17:35:54.435Z,13.60
2017-09-30T17:38:22.028Z,13.60
2017-09-30T17:40:49.599Z,13.50
2017-09-30T17:43:18.697Z,13.60
2017-09-30T17:45:46.282Z,13.60
2017-09-30T17:48:14.639Z,13.60
2017-09-30T17:50:42.219Z,13.60
2017-09-30T17:53:09.791Z,13.60
2017-09-30T17:55:37.380Z,13.60
2017-09-30T17:58:04.936Z,13.60
2017-09-30T18:00:32.553Z,13.60
2017-09-30T18:03:00.159Z,13.70
2017-09-30T18:05:28.506Z,13.70
2017-09-30T18:07:56.084Z,13.70
2017-09-30T18:10:23.648Z,13.70
2017-09-30T18:12:51.229Z,13.70
2017-09-30T18:15:19.644Z,13.60
2017-09-30T18:17:47.258Z,13.70
2017-09-30T18:20:14.902Z,13.60
2017-09-30T18:22:42.520Z,13.60
2017-09-30T18:25:10.209Z,13.60
2017-09-30T18:27:37.814Z,13.50
2017-09-30T18:30:06.207Z,13.50
2017-09-30T18:32:33.858Z,13.50
2017-09-30T18:35:01.431Z,13.50
2017-09-30T18:37:29.015Z,13.50
2017-09-30T18:39:57.380Z,13.50
2017-09-30T18:42:24.995Z,13.50
2017-09-30T18:44:52.567Z,13.40
2017-09-30T18:47:20.139Z,13.40
2017-09-30T18:49:47.737Z,13.40
2017-09-30T18:52:15.322Z,13.40
2017-09-30T18:54:43.666Z,13.40
2017-09-30T18:57:11.244Z,13.40
2017-09-30T18:59:39.598Z,13.40
2017-09-30T19:02:07.185Z,13.40
2017-09-30T19:04:34.803Z,13.40
2017-09-30T19:07:02.395Z,13.40
2017-09-30T19:09:29.982Z,13.30
2017-09-30T19:11:58.343Z,13.40
2017-09-30T19:14:25.916Z,13.40
2017-09-30T19:16:53.533Z,13.30
2017-09-30T19:19:21.106Z,13.30
2017-09-30T19:21:48.706Z,13.30
2017-09-30T19:24:16.292Z,13.30
2017-09-30T19:26:43.866Z,13.30
2017-09-30T19:29:11.586Z,13.20
2017-09-30T19:31:39.173Z,13.30
2017-09-30T19:34:06.781Z,13.20
2017-09-30T19:36:34.393Z,13.20
2017-09-30T19:39:01.969Z,13.10
2017-09-30T19:41:29.565Z,13.10
2017-09-30T19:43:57.175Z,13.10
2017-09-30T19:46:24.932Z,13.10
2017-09-30T19:48:52.526Z,13.00
2017-09-30T19:51:20.127Z,13.00
2017-09-30T19:53:48.484Z,13.00
2017-09-30T19:56:16.078Z,13.00
2017-09-30T19:58:43.649Z,13.00
2017-09-30T20:01:11.265Z,13.00
2017-09-30T20:03:38.834Z,12.90
2017-09-30T20:06:06.394Z,12.90
2017-09-30T20:08:34.007Z,12.90
2017-09-30T20:11:01.693Z,12.90
2017-09-30T20:13:29.278Z,12.90
2017-09-30T20:15:56.851Z,12.90
2017-09-30T20:18:24.591Z,12.80
2017-09-30T20:20:52.188Z,12.90
2017-09-30T20:23:19.818Z,12.80
2017-09-30T20:25:47.377Z,12.80
2017-09-30T20:28:14.967Z,12.80
2017-09-30T20:30:42.554Z,12.80
2017-09-30T20:33:10.128Z,12.90
2017-09-30T20:35:38.524Z,12.80
2017-09-30T20:38:06.889Z,12.90
2017-09-30T20:40:35.259Z,12.90
2017-09-30T20:43:02.882Z,12.80
2017-09-30T20:45:30.503Z,12.80
2017-09-30T20:47:58.084Z,12.90
2017-09-30T20:50:26.435Z,12.90
2017-09-30T20:52:54.033Z,12.90
2017-09-30T20:55:22.376Z,12.80
2017-09-30T20:57:49.956Z,12.80
2017-09-30T21:00:17.530Z,12.80
2017-09-30T21:02:46.760Z,12.70
2017-09-30T21:05:14.348Z,12.70
2017-09-30T21:07:41.974Z,12.70
2017-09-30T21:10:10.329Z,12.70
2017-09-30T21:12:37.932Z,12.70
2017-09-30T21:15:05.525Z,12.60
2017-09-30T21:17:33.112Z,12.60
2017-09-30T21:20:00.725Z,12.60
2017-09-30T21:22:28.480Z,12.60
2017-09-30T21:24:56.383Z,12.50
2017-09-30T21:27:23.967Z,12.50
2017-09-30T21:29:51.539Z,12.50
2017-09-30T21:32:19.136Z,12.50
2017-09-30T21:34:47.491Z,12.40
2017-09-30T21:37:15.087Z,12.30
2017-09-30T21:39:43.437Z,12.30
2017-09-30T21:42:11.057Z,12.20
2017-09-30T21:44:38.651Z,12.30
2017-09-30T21:47:06.205Z,12.40
2017-09-30T21:49:33.863Z,12.30
2017-09-30T21:52:01.438Z,12.30
2017-09-30T21:54:29.037Z,12.30
2017-09-30T21:56:56.621Z,12.30
2017-09-30T21:59:24.995Z,12.20
2017-09-30T22:01:53.339Z,12.10
2017-09-30T22:04:20.988Z,12.10
2017-09-30T22:06:48.577Z,12.10
2017-09-30T22:09:16.165Z,12.00
2017-09-30T22:11:43.767Z,12.00
2017-09-30T22:14:11.361Z,12.00
2017-09-30T22:16:38.962Z,12.00
2017-09-30T22:19:07.307Z,12.00
2017-09-30T22:21:34.914Z,11.90
2017-09-30T22:24:03.250Z,11.90
2017-09-30T22:26:30.823Z,11.90
2017-09-30T22:28:58.419Z,11.80
2017-09-30T22:31:26.749Z,11.60
2017-09-30T22:33:54.353Z,11.60
2017-09-30T22:36:21.908Z,11.60
2017-09-30T22:38:49.503Z,11.60
2017-09-30T22:41:17.854Z,11.60
2017-09-30T22:43:45.431Z,11.60
2017-09-30T22:46:13.795Z,11.50
2017-09-30T22:48:41.386Z,11.50
2017-09-30T22:51:09.748Z,11.50
2017-09-30T22:53:37.339Z,11.50
2017-09-30T22:56:05.713Z,11.50
2017-09-30T22:58:33.267Z,11.50
2017-09-30T23:01:00.875Z,11.60
2017-09-30T23:03:28.463Z,11.60
2017-09-30T23:05:56.047Z,11.50
2017-09-30T23:08:23.647Z,11.60
2017-09-30T23:10:51.987Z,11.50
2017-09-30T23:13:19.599Z,11.40
2017-09-30T23:15:47.945Z,11.40
2017-09-30T23:18:15.567Z,11.30
2017-09-30T23:20:43.133Z,11.40
2017-09-30T23:23:10.729Z,11.30
2017-09-30T23:25:38.307Z,11.30
2017-09-30T23:28:05.869Z,11.30
2017-09-30T23:30:33.466Z,11.20
2017-09-30T23:33:01.803Z,11.30
2017-09-30T23:35:29.403Z,11.30
2017-09-30T23:37:57.741Z,11.10
2017-09-30T23:40:25.339Z,11.10
2017-09-30T23:42:52.950Z,11.00
2017-09-30T23:45:20.565Z,11.10
2017-09-30T23:47:48.138Z,11.00
2017-09-30T23:50:16.564Z,11.00
2017-09-30T23:52:44.144Z,11.00
2017-09-30T23:55:11.729Z,10.90
2017-09-30T23:57:39.337Z,10.90
